< Typhoon 200711 2007 Season Typhoon 200713 >
Typhoon 200712 (WIPHA)
General InformationTrack Information on Google MapsDetailed Wind InformationAccess Analytics MapList of All Images || NewsDisaster Info.WeblogTrackbackTyphoon FrontResourceGoogle EarthGE AnimationAtom FeedGeoJSON
Detalied Best Track (Time Zone = UTC)
Year Month Day Hour Lat. Long. Pressure (hPa) Wind (kt) Class Image Chart
2007 9 15 00 19.4 133.6 1002 0 2 Image Chart
2007 9 15 06 19.5 132.8 998 0 2 Image Chart
2007 9 15 12 19.6 132.3 998 0 2 Image Chart
2007 9 15 18 19.9 131.7 996 0 2 Image Chart
2007 9 16 00 20.1 131.5 994 35 3 Image Chart
2007 9 16 06 20.6 130.6 990 40 3 Image Chart
2007 9 16 12 21.3 130.0 985 50 4 Image Chart
2007 9 16 18 22.0 128.7 975 60 4 Image Chart
2007 9 17 00 22.4 127.8 965 70 5 Image Chart
2007 9 17 03 22.7 127.1 955 80 5 Image Chart
2007 9 17 06 22.9 126.8 945 85 5 Image Chart
2007 9 17 09 23.2 126.3 940 90 5 Image Chart
2007 9 17 12 23.4 125.7 935 95 5 Image Chart
2007 9 17 15 23.6 125.1 930 95 5 Image Chart
2007 9 17 18 23.9 124.6 925 100 5 Image Chart
2007 9 17 21 24.1 124.1 925 100 5 Image Chart
2007 9 17 23 24.2 123.9 925 100 5 Image Chart
2007 9 18 00 24.4 123.7 925 100 5 Image Chart
2007 9 18 03 25.0 123.2 925 100 5 Image Chart
2007 9 18 06 25.7 122.6 930 100 5 Image Chart
2007 9 18 09 25.9 121.9 935 95 5 Image Chart
2007 9 18 12 26.2 121.4 950 85 5 Image Chart
2007 9 18 18 27.1 120.8 960 75 5 Image Chart
2007 9 19 00 27.8 119.5 975 60 4 Image Chart
2007 9 19 06 29.0 119.0 992 45 3 Image Chart
2007 9 19 12 30.4 118.9 998 0 2 Image Chart
2007 9 19 18 32.2 119.4 1000 0 2 Image Chart
2007 9 20 00 35.1 120.4 1002 0 6 Image Chart
2007 9 20 06 36.3 121.8 1004 0 6 Image Chart
2007 9 20 12 37.9 123.9 1006 0 6 Image Chart
Japan Meteorological Agency Best Track Data | Correction Date : 2007-10-24
< Typhoon 200711 2007 Season Typhoon 200713 >

Help